Sweeney Granite Mountains, California Weather observations

Data are for 10 minute period ending at time listed.
 Day   Time   Solar   Ave.   Ave.  Ave.  Vector  Max.   Baro.   Total    
  of    of     Rad.   Air    Rel.  Wind   Wind   Wind  Press.  Precip.   
Year   Day            Temp.  Hum.  Speed  Dir.   Gust                    
2016   (PST)  Kw/m2    F      %     mph   deg.    mph    mb.     in.     
-------------------------------------------------------------------------
 149    4:10   0.00   56.2    45    4.1   275     5.3   865.5    0.00 
 149    4:20   0.00   59.1    40    4.0   270     5.1   865.4    0.00 
 149    4:30   0.00   59.1    40    3.7   274     4.6   865.5    0.00 
 149    4:40   0.00   56.6    45    4.5   283     5.5   865.5    0.00 
 149    4:50   0.01   56.5    45    5.1   282     5.5   865.5    0.00 
 149    5:00   0.01   57.0    44    4.7   283     5.4   865.6    0.00 
 149    5:10   0.02   59.2    40    3.9   276     4.7   865.7    0.00 
 149    5:20   0.03   57.6    44    4.6   284     5.4   865.7    0.00 
 149    5:30   0.03   57.2    46    4.0   286     4.9   865.8    0.00 
 149    5:40   0.10   60.3    40    3.3   291     3.9   865.9    0.00 
 149    5:50   0.17   63.7    37    2.8   285     3.6   866.0    0.00 
 149    6:00   0.18   66.5    33    2.0   287     3.1   866.2    0.00 
 149    6:10   0.23   68.9    30    1.5   294     2.3   866.4    0.00 
 149    6:20   0.26   70.4    27    1.2   316     2.9   866.6    0.00 
 149    6:30   0.30   70.4    26    2.4   312     3.4   866.8    0.00 
 149    6:40   0.34   71.0    25    1.5   326     2.9   866.9    0.00 
 149    6:50   0.38   72.5    24    1.2    39     3.4   867.0    0.00 
 149    7:00   0.41   72.6    24    3.0   179     6.1   867.1    0.00 
 149    7:10   0.45   73.4    23    3.3   142     6.6   867.3    0.00 
 149    7:20   0.48   73.1    23    4.7   122     8.3   867.3    0.00 
 149    7:30   0.52   72.3    24    6.8   122    11.6   867.4    0.00 
 149    7:40   0.55   72.1    24    7.8   120    12.2   867.5    0.00 
 149    7:50   0.59   71.8    24    6.5   111    12.1   867.6    0.00 
 149    8:00   0.60   72.2    23    6.2   118    13.5   867.6    0.00 
 149    8:10   0.65   72.8    22    7.2   119    11.8   867.7    0.00 
 149    8:20   0.65   72.8    21    5.9   112    13.8   867.7    0.00 
 149    8:30   0.72   73.3    21    5.1   118    12.3   867.8    0.00 
 149    8:40   0.75   73.1    20    7.6   101    15.6   867.7    0.00 
 149    8:50   0.79   73.3    18    4.3   196    12.0   867.8    0.00 
 149    9:00   0.82   73.7    18    7.8   120    16.1   867.8    0.00 
 149    9:10   0.84   74.0    17   10.2   118    15.3   867.8    0.00 
 149    9:20   0.83   74.3    16    4.8   158    12.8   867.8    0.00 
 149    9:30   0.86   74.4    15    4.3   214    14.1   867.8    0.00 
 149    9:40   0.90   75.2    15    5.7   146    14.2   867.9    0.00 
 149    9:50   0.91   74.4    15    8.7   117    20.1   867.9    0.00 
 149   10:00   0.94   74.6    14   14.6   120    23.5   867.9    0.00 
 149   10:10   0.96   75.2    13   14.3   121    27.0   868.0    0.00 
 149   10:20   0.95   75.5    13    9.3   112    19.0   868.0    0.00 
 149   10:30   0.99   75.5    13   14.7   121    25.0   868.0    0.00 
 149   10:40   0.99   75.7    13   15.7   118    28.8   868.0    0.00 
 149   10:50   1.01   75.2    14   12.9   127    23.4   868.0    0.00 
 149   11:00   1.01   76.1    14   13.9   120    22.7   867.9    0.00 
 149   11:10   0.99   75.3    13   12.4   125    20.5   867.9    0.00 
 149   11:20   1.01   75.3    14   13.7   120    30.0   867.8    0.00 
 149   11:30   1.03   76.0    14   14.5   127    24.9   867.8    0.00 
 149   11:40   1.02   76.7    13    4.6   210    14.9   867.8    0.00 
 149   11:50   1.02   75.7    14   13.3   112    22.4   867.7    0.00 
 149   12:00   1.01   76.1    14    7.8   131    27.8   867.7    0.00 
 149   12:10   1.02   76.2    14    9.8   121    20.9   867.6    0.00 
 149   12:20   0.98   75.7    14   14.7   119    26.2   867.6    0.00 
 149   12:30   1.01   75.5    14    7.3   137    18.0   867.6    0.00 
 149   12:40   1.00   76.8    14    6.4   117    16.7   867.5    0.00 
 149   12:50   0.99   76.1    14   10.8   105    19.3   867.4    0.00 
 149   13:00   0.98   76.8    14    7.5   134    18.2   867.4    0.00 
 149   13:10   0.97   76.7    14   10.2   114    18.6   867.3    0.00 
 149   13:20   0.96   76.8    14   12.0   114    23.2   867.2    0.00 
 149   13:30   0.94   75.8    15    7.4   102    24.5   867.2    0.00 
 149   13:40   0.92   76.6    14   11.0   113    22.6   867.1    0.00 
 149   13:50   0.90   76.1    14    8.9   110    22.2   867.1    0.00 
 149   14:00   0.86   77.3    14   11.5   114    18.6   866.9    0.00 
 149   14:10   0.84   77.1    14   15.9   123    23.8   866.9    0.00 
 149   14:20   0.82   76.5    14    8.1   123    23.9   866.8    0.00 
 149   14:30   0.73   76.4    15   12.1   123    23.0   866.7    0.00 
 149   14:40   0.77   77.6    15    5.2   122    17.5   866.7    0.00 
 149   14:50   0.75   77.5    15    7.3   119    14.3   866.7    0.00 
 149   15:00   0.71   77.5    15   12.0   119    24.4   866.5    0.00 
 149   15:10   0.69   77.0    14   12.6   123    19.4   866.6    0.00 
 149   15:20   0.66   77.1    14   10.7   121    22.6   866.4    0.00 
 149   15:30   0.62   76.8    14    8.3   112    19.4   866.4    0.00 
 149   15:40   0.59   76.8    14   13.4   118    24.5   866.5    0.00 
 149   15:50   0.56   76.7    13   13.8   118    23.2   866.4    0.00 
 149   16:00   0.53   77.0    13   13.5   121    23.0   866.4    0.00 
 149   16:10   0.50   76.5    13    7.0   118    18.0   866.4    0.00 
 149   16:20   0.46   77.3    13    4.3   169    15.6   866.3    0.00 
 149   16:30   0.42   76.7    13    9.8   123    19.6   866.3    0.00 
 149   16:40   0.39   76.1    13    8.9   114    20.0   866.4    0.00 
 149   16:50   0.35   76.3    13   10.8   113    19.8   866.4    0.00 
 149   17:00   0.32   75.7    13   11.8   120    24.0   866.4    0.00 
 149   17:10   0.28   76.0    13    7.2   111    15.9   866.4    0.00 
 149   17:20   0.25   75.7    13    7.1   126    17.2   866.4    0.00 
 149   17:30   0.21   75.4    13   11.5   116    17.7   866.4    0.00 
 149   17:40   0.17   74.7    14   10.5   112    19.9   866.6    0.00 
 149   17:50   0.07   74.1    14    9.7   117    17.8   866.7    0.00 
 149   18:00   0.03   73.0    14    3.2   180    13.3   866.8    0.00 
 149   18:10   0.02   72.5    14    5.3   104    14.7   866.8    0.00 
 149   18:20   0.01   72.2    14    5.3   106    10.4   866.9    0.00 
 149   18:30   0.01   71.3    16    5.6   113    11.2   866.9    0.00 
 149   18:40   0.00   70.9    16    3.1    84     9.5   867.0    0.00 
 149   18:50   0.00   70.5    16    4.1    82    11.2   867.1    0.00 
 149   19:00   0.00   69.6    17    4.5    90     7.8   867.2    0.00 
 149   19:10   0.00   69.6    16    2.4   100     5.4   867.3    0.00 
 149   19:20   0.00   69.6    16    1.6   102     5.0   867.3    0.00 
 149   19:30   0.00   69.2    17    1.9    73     3.7   867.3    0.00 
 149   19:40   0.00   68.2    18    0.9   260     2.6   867.3    0.00 
 149   19:50   0.00   67.3    19    2.7   245     6.1   867.4    0.00 
 149   20:00   0.00   68.2    18    2.1   214     8.2   867.5    0.00 
 149   20:10   0.00   67.7    18    3.4   239     9.6   867.6    0.00 
 149   20:20   0.00   68.5    17    3.1   257     7.3   867.7    0.00 
 149   20:30   0.00   68.0    18    1.7   265     5.2   867.8    0.00 
 149   20:40   0.00   67.3    18    2.1   278     3.9   867.9    0.00 
 149   20:50   0.00   66.8    18    2.6   282     4.9   868.0    0.00 
 149   21:00   0.00   66.9    17    2.1   284     4.8   868.0    0.00 
 149   21:10   0.00   67.3    16    2.0   279     6.4   868.1    0.00 
 149   21:20   0.00   67.7    16    1.7   243     4.7   868.1    0.00 
 149   21:30   0.00   67.6    16    2.5   251     7.3   868.1    0.00 
 149   21:40   0.00   66.5    17    1.3   295     5.1   868.2    0.00 
 149   21:50   0.00   67.6    16    3.5   264     9.3   868.2    0.00 
 149   22:00   0.00   66.7    17    1.4   272     3.4   868.2    0.00 
 149   22:10   0.00   66.5    17    2.4   267     5.3   868.2    0.00 
 149   22:20   0.00   65.6    18    1.1   298     2.9   868.2    0.00 
 149   22:30   0.00   65.2    18    1.2   303     2.8   868.2    0.00 
 149   22:40   0.00   64.7    18    1.3   308     4.5   868.2    0.00 
 149   22:50   0.00   64.5    19    2.9   258     6.4   868.2    0.00 
 149   23:00   0.00   65.3    18    1.7   283     5.0   868.1    0.00 
 149   23:10   0.00   64.5    19    1.9   283     3.4   868.1    0.00 
 149   23:20   0.00   62.5    21    2.9   305     5.0   868.1    0.00 
 149   23:30   0.00   63.6    20    1.8   286     3.1   868.0    0.00 
 149   23:40   0.00   63.3    22    2.3   305     3.8   867.9    0.00 
 149   23:50   0.00   64.2    22    2.5   304     4.4   867.9    0.00 
 150    0:00   0.00   64.6    23    2.0   308     3.7   867.9    0.00 
 150    0:10   0.00   64.5    23    1.0   295     2.3   867.8    0.00 
 150    0:20   0.00   63.5    24    0.3   322     2.2   867.7    0.00 
 150    0:30   0.00   61.7    26    2.8   297     3.7   867.8    0.00 
 150    0:40   0.00   62.4    26    2.7   281     4.0   867.8    0.00 
 150    0:50   0.00   63.4    25    3.0   282     4.0   867.6    0.00 
 150    1:00   0.00   62.4    26    2.6   273     3.7   867.6    0.00 
 150    1:10   0.00   61.3    27    2.0   294     3.4   867.6    0.00 
 150    1:20   0.00   60.9    28    2.2   291     3.3   867.6    0.00 
 150    1:30   0.00   58.3    31    2.4   285     3.4   867.5    0.00 
 150    1:40   0.00   56.9    32    2.9   295     3.9   867.6    0.00 
 150    1:50   0.00   57.9    31    3.5   283     4.8   867.4    0.00 
 150    2:00   0.00   55.8    33    4.5   281     5.3   867.4    0.00 
 150    2:10   0.00   59.3    28    3.4   290     4.1   867.4    0.00 
 150    2:20   0.00   58.5    29    2.9   292     3.8   867.4    0.00 
 150    2:30   0.00   58.4    29    3.3   286     3.9   867.4    0.00 
 150    2:40   0.00   58.6    29    2.8   296     3.8   867.4    0.00 
 150    2:50   0.00   59.2    28    2.8   280     3.9   867.4    0.00 
 150    3:00   0.00   58.4    29    2.2   285     3.3   867.4    0.00 
 150    3:10   0.00   57.1    32    1.3   310     2.8   867.4    0.00 
 150    3:20   0.00   54.9    34    2.9   283     4.2   867.4    0.00 
 150    3:30   0.00   56.7    32    4.1   283     5.2   867.4    0.00 
 150    3:40   0.00   55.9    33    4.1   275     5.0   867.5    0.00 
 150    3:50   0.00   55.9    33    4.6   283     5.8   867.5    0.00 
 150    4:00   0.00   57.8    31    4.1   284     6.2   867.6    0.00 

Return to Sweeney Granite Mountains graphs page.


Western Regional Climate Center,wrcc@dri.edu